Flight Track Log - Related Links

Times and Time Zones

All times are in EDT time to prevent confusion due to time zone crossing. See the SKW5653 flight status page for this flight to view local times or setup timezone preferences in your user account.

Time Position Orientation Groundspeed Altitude Reporting Facility
EDT Latitude Longitude Course Direction KTS MPH feet Rate Location/Type
Wed 07:13:00 AM 30.3259 -98.1572 287° West  Level Estimated
Wed 07:14:00 AM 30.4088 -98.2414 319° Northwest  Level FlightAware Approximate
Wed 07:15:00 AM 30.4410 -98.3637 279° West  Level Estimated
Wed 07:16:00 AM 30.4730 -98.4861 270° West  Level Estimated
Wed 07:17:00 AM 30.5049 -98.6085 281° West  Level Estimated
Wed 07:18:00 AM 30.5368 -98.7311 276° West  Level Estimated
Wed 07:19:00 AM 30.5230 -98.8580 263° West  Level FlightAware Approximate
Wed 07:20:00 AM 30.5549 -98.9806 270° West  Level Estimated
Wed 07:21:00 AM 30.5866 -99.1032 275° West  Level Estimated
Wed 07:22:00 AM 30.6182 -99.2259 279° West  Level Estimated
Wed 07:23:00 AM 30.6497 -99.3487 274° West  Level Estimated
Wed 07:24:00 AM 30.6124 -99.4693 250° West  Level FlightAware Approximate
Wed 07:25:00 AM 30.6441 -99.5919 276° West  Level Estimated
Wed 07:26:00 AM 30.6111 -99.7142 253° West  Level FlightAware Approximate
Wed 07:27:00 AM 30.6430 -99.8368 279° West  Level Estimated
Wed 07:28:00 AM 30.6530 -99.9644 275° West  Level FlightAware Approximate
Wed 07:29:00 AM 30.6629 -100.0921 275° West  Level FlightAware Approximate
Wed 07:30:00 AM 30.6727 -100.2197 275° West  Level FlightAware Approximate
Wed 07:31:00 AM 30.6823 -100.3474 275° West  Level FlightAware Approximate
Wed 07:32:00 AM 30.6918 -100.4751 275° West  Level FlightAware Approximate
Wed 07:33:00 AM 30.7012 -100.6029 275° West  Level FlightAware Approximate
Wed 07:34:00 AM 30.7105 -100.7306 275° West  Level FlightAware Approximate
Wed 07:35:00 AM 30.7424 -100.8534 277° West  Level Estimated
Wed 07:36:00 AM 30.7544 -100.9809 276° West  Level FlightAware Approximate
Wed 07:37:00 AM 30.7663 -101.1084 276° West  Level FlightAware Approximate
Wed 07:38:00 AM 30.7780 -101.2360 276° West  Level FlightAware Approximate
Wed 07:39:00 AM 30.7896 -101.3636 276° West  Level FlightAware Approximate
Wed 07:40:00 AM 30.8011 -101.4913 276° West  Level FlightAware Approximate
Wed 07:41:00 AM 30.8124 -101.6189 276° West  Level FlightAware Approximate
Wed 07:42:00 AM 30.8237 -101.7466 276° West  Level FlightAware Approximate
Wed 07:43:00 AM 30.8347 -101.8744 276° West  Level FlightAware Approximate
Wed 07:44:00 AM 30.8457 -102.0021 276° West  Level FlightAware Approximate
Wed 07:45:00 AM 30.8566 -102.1299 276° West  Level FlightAware Approximate
Wed 07:46:00 AM 30.8887 -102.2528 278° West  Level Estimated
Wed 07:47:00 AM 30.8999 -102.3806 276° West  Level FlightAware Approximate
Wed 07:48:00 AM 30.9111 -102.5084 276° West  Level FlightAware Approximate
Wed 07:49:00 AM 30.9221 -102.6362 276° West  Level FlightAware Approximate
Wed 07:50:00 AM 30.9330 -102.7641 276° West  Level FlightAware Approximate
Wed 07:51:00 AM 30.9438 -102.8920 276° West  Level FlightAware Approximate
Wed 07:52:00 AM 30.9760 -103.0150 288° West  Level Estimated
Wed 07:53:00 AM 31.0089 -103.1377 287° West  Level FlightAware Approximate
Wed 07:54:00 AM 31.0417 -103.2605 287° West  Level FlightAware Approximate
Wed 07:55:00 AM 31.0745 -103.3834 287° West  Level FlightAware Approximate
Wed 07:56:00 AM 31.1071 -103.5064 287° West  Level FlightAware Approximate
Wed 07:57:00 AM 31.1395 -103.6294 287° West  Level FlightAware Approximate
Wed 07:58:00 AM 31.1719 -103.7526 287° West  Level FlightAware Approximate
Wed 07:59:00 AM 31.2042 -103.8758 287° West  Level FlightAware Approximate
Wed 08:00:00 AM 31.2363 -103.9991 287° West  Level FlightAware Approximate
Wed 08:01:00 AM 31.2683 -104.1225 287° West  Level FlightAware Approximate
Wed 08:02:00 AM 31.3002 -104.2460 287° West  Level FlightAware Approximate
Wed 08:03:00 AM 31.3320 -104.3696 287° West  Level FlightAware Approximate
Wed 08:04:00 AM 31.3636 -104.4932 287° West  Level FlightAware Approximate
Wed 08:05:00 AM 31.3952 -104.6169 287° West  Level FlightAware Approximate
Wed 08:06:00 AM 31.4266 -104.7407 287° West  Level FlightAware Approximate
Wed 08:07:00 AM 31.4579 -104.8646 287° West  Level FlightAware Approximate
Wed 08:08:00 AM 31.4891 -104.9886 286° West  Level FlightAware Approximate
Wed 08:09:00 AM 31.5202 -105.1127 286° West  Level FlightAware Approximate
Wed 08:10:00 AM 31.5511 -105.2368 286° West  Level FlightAware Approximate
Wed 08:11:00 AM 31.5809 -105.3614 287° West  Level Estimated
Wed 08:12:00 AM 31.6130 -105.4852 287° West  Level FlightAware Approximate
Wed 08:13:00 AM 31.6450 -105.6091 287° West  Level FlightAware Approximate
Wed 08:14:00 AM 31.6769 -105.7330 287° West  Level FlightAware Approximate
Wed 08:15:00 AM 31.7087 -105.8571 287° West  Level FlightAware Approximate
Wed 08:16:00 AM 31.7404 -105.9813 287° West  Level FlightAware Approximate
Wed 08:17:00 AM 31.7719 -106.1055 287° West  Level FlightAware Approximate
Wed 08:18:00 AM 31.8007 -106.2307 275° West  Level Estimated
Wed 08:19:00 AM 31.8102 -106.3599 275° West  Level FlightAware Approximate
Wed 08:20:00 AM 31.8197 -106.4892 275° West  Level FlightAware Approximate
Wed 08:21:00 AM 31.8290 -106.6184 275° West  Level FlightAware Approximate
Wed 08:22:00 AM 31.8382 -106.7477 275° West  Level FlightAware Approximate
Wed 08:23:00 AM 31.8672 -106.8730 276° West  Level Estimated
Wed 08:24:00 AM 31.8747 -107.0025 274° West  Level FlightAware Approximate
Wed 08:25:00 AM 31.8822 -107.1320 274° West  Level FlightAware Approximate
Wed 08:26:00 AM 31.8895 -107.2616 274° West  Level FlightAware Approximate
Wed 08:27:00 AM 31.8966 -107.3911 274° West  Level FlightAware Approximate
Wed 08:28:00 AM 31.9037 -107.5207 274° West  Level FlightAware Approximate
Wed 08:29:00 AM 31.9106 -107.6503 274° West  Level FlightAware Approximate
Wed 08:30:00 AM 31.9401 -107.7755 285° West  Level Estimated
Wed 08:31:00 AM 31.9632 -107.9025 282° West  Level FlightAware Approximate
Wed 08:32:00 AM 31.9861 -108.0296 282° West  Level FlightAware Approximate
Wed 08:33:00 AM 32.0154 -108.1549 286° West  Level Estimated
Wed 08:34:00 AM 32.0448 -108.2803 285° West  Level FlightAware Approximate
Wed 08:35:00 AM 32.0739 -108.4057 285° West  Level FlightAware Approximate
Wed 08:36:00 AM 32.1030 -108.5312 285° West  Level FlightAware Approximate
Wed 08:37:00 AM 32.1319 -108.6568 285° West  Level FlightAware Approximate
Wed 08:38:00 AM 32.1607 -108.7825 285° West  Level FlightAware Approximate
Wed 08:39:00 AM 32.1894 -108.9082 285° West  Level FlightAware Approximate
Wed 08:40:00 AM 32.2180 -109.0341 285° West  Level FlightAware Approximate
Wed 08:41:00 AM 32.2464 -109.1600 285° West  Level FlightAware Approximate
Wed 08:42:00 AM 32.2746 -109.2860 292° West  Level Estimated
Wed 08:43:00 AM 32.3165 -109.4067 292° West  Level FlightAware Approximate
Wed 08:44:00 AM 32.3582 -109.5274 292° West  Level FlightAware Approximate
Wed 08:45:00 AM 32.3998 -109.6483 292° West  Level FlightAware Approximate
Wed 08:46:00 AM 32.4413 -109.7693 292° West  Level FlightAware Approximate
Wed 08:47:00 AM 32.4827 -109.8904 292° West  Level FlightAware Approximate
Wed 08:48:00 AM 32.5240 -110.0116 292° West  Level FlightAware Approximate
Wed 08:49:00 AM 32.5652 -110.1329 292° West  Level FlightAware Approximate
Wed 08:50:00 AM 32.6062 -110.2543 292° West  Level FlightAware Approximate
Wed 08:51:00 AM 32.6472 -110.3759 292° West  Level FlightAware Approximate
Wed 08:52:00 AM 32.6880 -110.4975 292° West  Level FlightAware Approximate
Wed 08:53:00 AM 32.7125 -110.6252 292° West  Level Estimated
Wed 08:54:00 AM 32.7546 -110.7464 292° West  Level FlightAware Approximate
Wed 08:55:00 AM 32.7966 -110.8676 292° West  Level FlightAware Approximate
Wed 08:56:00 AM 32.8384 -110.9890 292° West  Level FlightAware Approximate
Wed 08:57:00 AM 32.8802 -111.1104 292° West  Level FlightAware Approximate
Wed 08:58:00 AM 32.9218 -111.2320 292° West  Level FlightAware Approximate
Wed 08:59:00 AM 32.9633 -111.3537 292° West  Level FlightAware Approximate
Wed 09:00:00 AM 33.0047 -111.4755 292° West  Level FlightAware Approximate
Wed 09:01:00 AM 33.0460 -111.5974 292° West  Level FlightAware Approximate
Wed 09:02:00 AM 33.0871 -111.7195 292° West  Level FlightAware Approximate
Wed 09:03:00 AM 33.1281 -111.8416 292° West  Level FlightAware Approximate
Wed 09:04:00 AM 33.1690 -111.9639 292° West  Level FlightAware Approximate
Wed 09:05:00 AM 33.2098 -112.0863 292° West  Level FlightAware Approximate
Wed 09:06:00 AM 33.2505 -112.2088 292° West  Level FlightAware Approximate
Wed 09:07:00 AM 33.2910 -112.3314 292° West  Level FlightAware Approximate
Wed 09:08:00 AM 33.3315 -112.4541 292° West  Level FlightAware Approximate
Wed 09:09:00 AM 33.3718 -112.5769 291° West  Level FlightAware Approximate
Wed 09:10:00 AM 33.4120 -112.6999 291° West  Level FlightAware Approximate
Wed 09:11:00 AM 33.4272 -112.8307 293° West  Level Estimated
Wed 09:12:00 AM 33.4754 -112.9495 296° West  Level FlightAware Approximate
Wed 09:13:00 AM 33.5235 -113.0685 296° West  Level FlightAware Approximate
Wed 09:14:00 AM 33.5715 -113.1875 296° West  Level FlightAware Approximate
Wed 09:15:00 AM 33.5836 -113.3191 292° West  Level Estimated
Wed 09:16:00 AM 33.6330 -113.4374 297° West  Level FlightAware Approximate
Wed 09:17:00 AM 33.6823 -113.5558 297° West  Level FlightAware Approximate
Wed 09:18:00 AM 33.7315 -113.6745 297° West  Level FlightAware Approximate
Wed 09:19:00 AM 33.7398 -113.8066 297° West  Level Estimated
Wed 09:20:00 AM 33.8082 -113.9107 308° West  Level FlightAware Approximate
Wed 09:21:00 AM 33.8145 -114.0432 293° West  Level Estimated
Wed 09:22:00 AM 33.8778 -114.1518 305° West  Level FlightAware Approximate
Wed 09:23:00 AM 33.8821 -114.2844 293° West  Level Estimated
Wed 09:24:00 AM 33.9446 -114.3938 305° West  Level FlightAware Approximate
Wed 09:25:00 AM 34.0071 -114.5033 305° West  Level FlightAware Approximate
Wed 09:26:00 AM 34.0070 -114.6363 270° West  Level Estimated
Wed 09:27:00 AM 34.0208 -114.7682 277° West  Level FlightAware Approximate
Wed 09:28:00 AM 34.0346 -114.9002 277° West  Level FlightAware Approximate
Wed 09:29:00 AM 34.0481 -115.0322 277° West  Level FlightAware Approximate
Wed 09:30:00 AM 34.0616 -115.1643 277° West  Level FlightAware Approximate
Wed 09:31:00 AM 34.0749 -115.2964 277° West  Level FlightAware Approximate
Wed 09:32:00 AM 34.0880 -115.4286 277° West  Level FlightAware Approximate
Wed 09:33:00 AM 34.0831 -115.5615 270° West  Level Estimated
Wed 09:34:00 AM 34.0780 -115.6945 261° West  Level Estimated
Wed 09:35:00 AM 34.0737 -115.8275 268° West  Level FlightAware Approximate
Wed 09:36:00 AM 34.0682 -115.9604 255° West  Level Estimated
Wed 09:37:00 AM 34.0626 -116.0933 270° West  Level Estimated
Wed 09:38:00 AM 34.0569 -116.2262 255° West  Level Estimated
Wed 09:39:00 AM 34.0511 -116.3591 270° West  Level Estimated
Wed 09:40:00 AM 34.0451 -116.4919 270° West  Level Estimated
Wed 09:41:00 AM 34.0104 -116.6182 252° West  Level FlightAware Approximate
Wed 09:42:00 AM 34.0063 -116.7511 264° West  Level Estimated
Wed 09:43:00 AM 34.0020 -116.8840 263° West  Level Estimated
Wed 09:44:00 AM 33.9976 -117.0169 256° West  Level Estimated
Wed 09:45:00 AM 33.9930 -117.1497 270° West  Level Estimated
Wed 09:46:00 AM 33.9883 -117.2825 248° West  Level Estimated
Wed 09:47:00 AM 33.9834 -117.4154 301° West  Level Estimated
Wed 09:48:00 AM 33.9784 -117.5482 270° West  Level Estimated
Wed 09:49:00 AM 33.9732 -117.6810 270° West  Level Estimated
Wed 09:50:00 AM 33.9679 -117.8137 270° West  Level Estimated
Wed 09:51:00 AM 33.9625 -117.9465 270° West  Level Estimated
Wed 09:52:00 AM 33.9569 -118.0792 259° West  Level Estimated
Wed 09:53:00 AM 33.9512 -118.2120 270° West  Level Estimated
Wed 09:54:00 AM 33.9454 -118.3447 270° West  Level Estimated
Wed 09:55:00 AM 33.9333 -118.4000 270° West  Level FlightAware Approximate
Wed 09:56:00 AM 33.9425 -118.4081 270° West  Level Estimated
Wed 09:57:00 AM 33.9425 -118.4081 270° West  Level Estimated
Wed 09:58:00 AM 33.9425 -118.4081 270° West  Level Estimated
Wed 09:59:00 AM 33.9425 -118.4081 270° West  Level Estimated
Wed 10:00:00 AM 33.9425 -118.4081 270° West  Level Estimated
Wed 10:01:00 AM 33.9425 -118.4081 270° West  Level Estimated
Wed 10:02:00 AM 33.9425 -118.4081 270° West  Level Estimated
Wed 10:03:00 AM 33.9425 -118.4081 270° West  Level Estimated
Wed 10:04:00 AM 33.9425 -118.4081 270° West  Level Estimated
Wed 10:05:00 AM 33.9425 -118.4081 270° West  Level Estimated
Wed 10:06:00 AM 33.9425 -118.4081 270° West  Level Estimated
Wed 10:07:00 AM 33.9425 -118.4081 270° West  Level Estimated

Login

Don't have an account? Register now (free) for customized features, flight alerts, and more!